sensor_id;sensor_type;location;lat;lon;timestamp;P1;durP1;ratioP1;P2;durP2;ratioP2
11238;SDS011;5677;48.488;13.436;2023-04-15T00:02:00;0.90;;;0.90;;
11238;SDS011;5677;48.488;13.436;2023-04-15T00:04:26;0.83;;;0.83;;
11238;SDS011;5677;48.488;13.436;2023-04-15T00:06:55;0.80;;;0.80;;
11238;SDS011;5677;48.488;13.436;2023-04-15T00:09:23;0.90;;;0.90;;
11238;SDS011;5677;48.488;13.436;2023-04-15T00:11:50;1.10;;;1.00;;
11238;SDS011;5677;48.488;13.436;2023-04-15T00:14:17;0.97;;;0.97;;
11238;SDS011;5677;48.488;13.436;2023-04-15T00:16:43;0.80;;;0.80;;
11238;SDS011;5677;48.488;13.436;2023-04-15T00:19:10;0.80;;;0.80;;
11238;SDS011;5677;48.488;13.436;2023-04-15T00:21:37;0.93;;;0.93;;
11238;SDS011;5677;48.488;13.436;2023-04-15T00:24:03;0.90;;;0.90;;
11238;SDS011;5677;48.488;13.436;2023-04-15T00:26:32;0.87;;;0.87;;
11238;SDS011;5677;48.488;13.436;2023-04-15T00:28:59;0.70;;;0.70;;
11238;SDS011;5677;48.488;13.436;2023-04-15T00:31:26;0.90;;;0.90;;
11238;SDS011;5677;48.488;13.436;2023-04-15T00:33:53;1.10;;;0.90;;
11238;SDS011;5677;48.488;13.436;2023-04-15T00:36:20;0.97;;;0.83;;
11238;SDS011;5677;48.488;13.436;2023-04-15T00:38:47;0.90;;;0.90;;
11238;SDS011;5677;48.488;13.436;2023-04-15T00:41:14;1.10;;;1.00;;
11238;SDS011;5677;48.488;13.436;2023-04-15T00:43:42;0.73;;;0.73;;
11238;SDS011;5677;48.488;13.436;2023-04-15T00:46:08;0.80;;;0.80;;
11238;SDS011;5677;48.488;13.436;2023-04-15T00:48:37;0.80;;;0.80;;
11238;SDS011;5677;48.488;13.436;2023-04-15T00:51:05;0.97;;;0.83;;
11238;SDS011;5677;48.488;13.436;2023-04-15T00:53:33;0.90;;;0.90;;
11238;SDS011;5677;48.488;13.436;2023-04-15T00:56:00;0.80;;;0.80;;
11238;SDS011;5677;48.488;13.436;2023-04-15T00:58:27;0.83;;;0.83;;
11238;SDS011;5677;48.488;13.436;2023-04-15T01:00:55;0.90;;;0.90;;
11238;SDS011;5677;48.488;13.436;2023-04-15T01:03:23;0.80;;;0.80;;
11238;SDS011;5677;48.488;13.436;2023-04-15T01:05:51;0.87;;;0.87;;
11238;SDS011;5677;48.488;13.436;2023-04-15T01:08:22;0.73;;;0.73;;
11238;SDS011;5677;48.488;13.436;2023-04-15T01:10:51;1.90;;;0.87;;
11238;SDS011;5677;48.488;13.436;2023-04-15T01:13:19;0.90;;;0.90;;
11238;SDS011;5677;48.488;13.436;2023-04-15T01:15:46;1.83;;;0.87;;
11238;SDS011;5677;48.488;13.436;2023-04-15T01:18:14;3.03;;;1.07;;
11238;SDS011;5677;48.488;13.436;2023-04-15T01:20:41;1.00;;;0.90;;
11238;SDS011;5677;48.488;13.436;2023-04-15T01:23:08;0.80;;;0.80;;
11238;SDS011;5677;48.488;13.436;2023-04-15T01:25:38;0.90;;;0.90;;
11238;SDS011;5677;48.488;13.436;2023-04-15T01:28:07;0.90;;;0.90;;
11238;SDS011;5677;48.488;13.436;2023-04-15T01:30:35;1.03;;;1.00;;
11238;SDS011;5677;48.488;13.436;2023-04-15T01:33:02;1.30;;;1.20;;
11238;SDS011;5677;48.488;13.436;2023-04-15T01:35:28;1.00;;;1.00;;
11238;SDS011;5677;48.488;13.436;2023-04-15T01:37:56;0.80;;;0.80;;
11238;SDS011;5677;48.488;13.436;2023-04-15T01:40:29;0.90;;;0.90;;
11238;SDS011;5677;48.488;13.436;2023-04-15T01:42:57;0.80;;;0.80;;
11238;SDS011;5677;48.488;13.436;2023-04-15T01:45:24;0.90;;;0.90;;
11238;SDS011;5677;48.488;13.436;2023-04-15T01:47:51;2.57;;;0.90;;
11238;SDS011;5677;48.488;13.436;2023-04-15T01:50:18;1.20;;;0.97;;
11238;SDS011;5677;48.488;13.436;2023-04-15T01:52:45;0.80;;;0.80;;
11238;SDS011;5677;48.488;13.436;2023-04-15T01:55:12;1.50;;;0.80;;
11238;SDS011;5677;48.488;13.436;2023-04-15T01:57:39;0.90;;;0.90;;
11238;SDS011;5677;48.488;13.436;2023-04-15T02:00:08;0.87;;;0.87;;
11238;SDS011;5677;48.488;13.436;2023-04-15T02:02:35;1.10;;;0.90;;
11238;SDS011;5677;48.488;13.436;2023-04-15T02:05:02;0.90;;;0.90;;
11238;SDS011;5677;48.488;13.436;2023-04-15T02:07:29;0.80;;;0.80;;
11238;SDS011;5677;48.488;13.436;2023-04-15T02:09:57;0.70;;;0.70;;
11238;SDS011;5677;48.488;13.436;2023-04-15T02:12:23;1.40;;;1.00;;
11238;SDS011;5677;48.488;13.436;2023-04-15T02:14:51;0.87;;;0.87;;
11238;SDS011;5677;48.488;13.436;2023-04-15T02:17:19;1.00;;;0.90;;
11238;SDS011;5677;48.488;13.436;2023-04-15T02:19:46;0.90;;;0.80;;
11238;SDS011;5677;48.488;13.436;2023-04-15T02:22:13;0.90;;;0.90;;
11238;SDS011;5677;48.488;13.436;2023-04-15T02:24:42;0.90;;;0.90;;
11238;SDS011;5677;48.488;13.436;2023-04-15T02:27:09;0.90;;;0.90;;
11238;SDS011;5677;48.488;13.436;2023-04-15T02:29:36;0.97;;;0.90;;
11238;SDS011;5677;48.488;13.436;2023-04-15T02:32:03;0.97;;;0.97;;
11238;SDS011;5677;48.488;13.436;2023-04-15T02:34:31;0.97;;;0.90;;
11238;SDS011;5677;48.488;13.436;2023-04-15T02:36:58;1.00;;;1.00;;
11238;SDS011;5677;48.488;13.436;2023-04-15T02:39:25;0.90;;;0.90;;
11238;SDS011;5677;48.488;13.436;2023-04-15T02:41:52;1.00;;;1.00;;
11238;SDS011;5677;48.488;13.436;2023-04-15T02:44:19;1.20;;;1.10;;
11238;SDS011;5677;48.488;13.436;2023-04-15T02:46:47;1.10;;;1.00;;
11238;SDS011;5677;48.488;13.436;2023-04-15T02:49:16;0.83;;;0.83;;
11238;SDS011;5677;48.488;13.436;2023-04-15T02:51:44;0.80;;;0.80;;
11238;SDS011;5677;48.488;13.436;2023-04-15T02:54:13;1.10;;;0.80;;
11238;SDS011;5677;48.488;13.436;2023-04-15T02:56:40;0.70;;;0.70;;
11238;SDS011;5677;48.488;13.436;2023-04-15T02:59:07;0.73;;;0.73;;
11238;SDS011;5677;48.488;13.436;2023-04-15T03:01:33;0.77;;;0.77;;
11238;SDS011;5677;48.488;13.436;2023-04-15T03:04:00;1.10;;;1.00;;
11238;SDS011;5677;48.488;13.436;2023-04-15T03:06:27;0.83;;;0.83;;
11238;SDS011;5677;48.488;13.436;2023-04-15T03:08:55;0.80;;;0.80;;
11238;SDS011;5677;48.488;13.436;2023-04-15T03:11:21;0.90;;;0.90;;
11238;SDS011;5677;48.488;13.436;2023-04-15T03:13:48;1.10;;;0.90;;
11238;SDS011;5677;48.488;13.436;2023-04-15T03:16:15;0.80;;;0.80;;
11238;SDS011;5677;48.488;13.436;2023-04-15T03:18:42;0.90;;;0.90;;
11238;SDS011;5677;48.488;13.436;2023-04-15T03:21:08;0.87;;;0.83;;
11238;SDS011;5677;48.488;13.436;2023-04-15T03:23:35;1.67;;;0.87;;
11238;SDS011;5677;48.488;13.436;2023-04-15T03:26:03;0.80;;;0.80;;
11238;SDS011;5677;48.488;13.436;2023-04-15T03:28:30;0.73;;;0.73;;
11238;SDS011;5677;48.488;13.436;2023-04-15T03:30:57;0.70;;;0.70;;
11238;SDS011;5677;48.488;13.436;2023-04-15T03:33:24;0.77;;;0.70;;
11238;SDS011;5677;48.488;13.436;2023-04-15T03:35:51;2.10;;;0.90;;
11238;SDS011;5677;48.488;13.436;2023-04-15T03:38:18;0.80;;;0.80;;
11238;SDS011;5677;48.488;13.436;2023-04-15T03:40:45;3.80;;;0.70;;
11238;SDS011;5677;48.488;13.436;2023-04-15T03:43:13;0.80;;;0.80;;
11238;SDS011;5677;48.488;13.436;2023-04-15T03:45:40;0.70;;;0.70;;
11238;SDS011;5677;48.488;13.436;2023-04-15T03:48:07;0.80;;;0.80;;
11238;SDS011;5677;48.488;13.436;2023-04-15T03:50:34;0.87;;;0.87;;
11238;SDS011;5677;48.488;13.436;2023-04-15T03:53:00;0.80;;;0.80;;
11238;SDS011;5677;48.488;13.436;2023-04-15T03:55:27;0.70;;;0.70;;
11238;SDS011;5677;48.488;13.436;2023-04-15T03:57:54;0.80;;;0.80;;
11238;SDS011;5677;48.488;13.436;2023-04-15T04:00:22;0.70;;;0.70;;
11238;SDS011;5677;48.488;13.436;2023-04-15T04:02:49;0.80;;;0.80;;
11238;SDS011;5677;48.488;13.436;2023-04-15T04:05:16;0.80;;;0.80;;
11238;SDS011;5677;48.488;13.436;2023-04-15T04:07:42;0.60;;;0.60;;
11238;SDS011;5677;48.488;13.436;2023-04-15T04:10:09;0.90;;;0.90;;
11238;SDS011;5677;48.488;13.436;2023-04-15T04:12:36;0.70;;;0.70;;
11238;SDS011;5677;48.488;13.436;2023-04-15T04:15:03;0.80;;;0.80;;
11238;SDS011;5677;48.488;13.436;2023-04-15T04:17:32;0.70;;;0.70;;
11238;SDS011;5677;48.488;13.436;2023-04-15T04:19:58;1.20;;;0.67;;
11238;SDS011;5677;48.488;13.436;2023-04-15T04:22:25;0.70;;;0.70;;
11238;SDS011;5677;48.488;13.436;2023-04-15T04:24:52;0.63;;;0.63;;
11238;SDS011;5677;48.488;13.436;2023-04-15T04:27:19;0.70;;;0.70;;
11238;SDS011;5677;48.488;13.436;2023-04-15T04:29:45;1.53;;;0.80;;
11238;SDS011;5677;48.488;13.436;2023-04-15T04:32:13;0.70;;;0.70;;
11238;SDS011;5677;48.488;13.436;2023-04-15T04:34:41;0.80;;;0.80;;
11238;SDS011;5677;48.488;13.436;2023-04-15T04:37:08;0.70;;;0.70;;
11238;SDS011;5677;48.488;13.436;2023-04-15T04:39:35;0.60;;;0.60;;
11238;SDS011;5677;48.488;13.436;2023-04-15T04:42:02;0.70;;;0.70;;
11238;SDS011;5677;48.488;13.436;2023-04-15T04:44:28;1.10;;;0.77;;
11238;SDS011;5677;48.488;13.436;2023-04-15T04:46:55;0.70;;;0.70;;
11238;SDS011;5677;48.488;13.436;2023-04-15T04:49:22;0.93;;;0.83;;
11238;SDS011;5677;48.488;13.436;2023-04-15T04:51:50;0.63;;;0.63;;
11238;SDS011;5677;48.488;13.436;2023-04-15T04:54:17;0.83;;;0.73;;
11238;SDS011;5677;48.488;13.436;2023-04-15T04:56:44;0.97;;;0.70;;
11238;SDS011;5677;48.488;13.436;2023-04-15T04:59:11;0.80;;;0.80;;
11238;SDS011;5677;48.488;13.436;2023-04-15T05:01:38;0.70;;;0.70;;
11238;SDS011;5677;48.488;13.436;2023-04-15T05:04:05;0.67;;;0.67;;
11238;SDS011;5677;48.488;13.436;2023-04-15T05:06:32;0.70;;;0.70;;
11238;SDS011;5677;48.488;13.436;2023-04-15T05:09:01;0.70;;;0.70;;
11238;SDS011;5677;48.488;13.436;2023-04-15T05:11:30;0.87;;;0.87;;
11238;SDS011;5677;48.488;13.436;2023-04-15T05:13:56;0.53;;;0.53;;
11238;SDS011;5677;48.488;13.436;2023-04-15T05:16:25;1.30;;;0.67;;
11238;SDS011;5677;48.488;13.436;2023-04-15T05:18:52;1.03;;;0.70;;
11238;SDS011;5677;48.488;13.436;2023-04-15T05:21:19;0.80;;;0.80;;
11238;SDS011;5677;48.488;13.436;2023-04-15T05:23:46;0.50;;;0.50;;
11238;SDS011;5677;48.488;13.436;2023-04-15T05:26:14;0.60;;;0.60;;
11238;SDS011;5677;48.488;13.436;2023-04-15T05:28:41;0.70;;;0.70;;
11238;SDS011;5677;48.488;13.436;2023-04-15T05:31:08;0.60;;;0.60;;
11238;SDS011;5677;48.488;13.436;2023-04-15T05:33:35;0.97;;;0.60;;
11238;SDS011;5677;48.488;13.436;2023-04-15T05:36:02;1.23;;;0.70;;
11238;SDS011;5677;48.488;13.436;2023-04-15T05:38:29;0.77;;;0.70;;
11238;SDS011;5677;48.488;13.436;2023-04-15T05:40:55;0.70;;;0.70;;
11238;SDS011;5677;48.488;13.436;2023-04-15T05:43:23;0.70;;;0.70;;
11238;SDS011;5677;48.488;13.436;2023-04-15T05:45:50;0.67;;;0.67;;
11238;SDS011;5677;48.488;13.436;2023-04-15T05:48:17;0.60;;;0.60;;
11238;SDS011;5677;48.488;13.436;2023-04-15T05:50:43;0.90;;;0.70;;
11238;SDS011;5677;48.488;13.436;2023-04-15T05:53:10;0.53;;;0.53;;
11238;SDS011;5677;48.488;13.436;2023-04-15T05:55:37;0.53;;;0.53;;
11238;SDS011;5677;48.488;13.436;2023-04-15T05:58:03;0.80;;;0.80;;
11238;SDS011;5677;48.488;13.436;2023-04-15T06:00:31;0.70;;;0.70;;
11238;SDS011;5677;48.488;13.436;2023-04-15T06:02:58;0.60;;;0.60;;
11238;SDS011;5677;48.488;13.436;2023-04-15T06:05:25;0.70;;;0.70;;
11238;SDS011;5677;48.488;13.436;2023-04-15T06:07:52;1.93;;;0.70;;
11238;SDS011;5677;48.488;13.436;2023-04-15T06:10:18;1.00;;;0.60;;
11238;SDS011;5677;48.488;13.436;2023-04-15T06:12:45;2.63;;;0.83;;
11238;SDS011;5677;48.488;13.436;2023-04-15T06:15:12;0.70;;;0.70;;
11238;SDS011;5677;48.488;13.436;2023-04-15T06:17:40;1.17;;;0.70;;
11238;SDS011;5677;48.488;13.436;2023-04-15T06:20:07;0.53;;;0.53;;
11238;SDS011;5677;48.488;13.436;2023-04-15T06:22:35;1.43;;;0.40;;
11238;SDS011;5677;48.488;13.436;2023-04-15T06:25:02;0.40;;;0.40;;
11238;SDS011;5677;48.488;13.436;2023-04-15T06:27:29;1.97;;;1.00;;
11238;SDS011;5677;48.488;13.436;2023-04-15T06:29:56;2.27;;;1.30;;
11238;SDS011;5677;48.488;13.436;2023-04-15T06:32:23;3.77;;;2.23;;
11238;SDS011;5677;48.488;13.436;2023-04-15T06:34:51;2.83;;;1.93;;
11238;SDS011;5677;48.488;13.436;2023-04-15T06:37:18;4.43;;;1.80;;
11238;SDS011;5677;48.488;13.436;2023-04-15T06:39:44;1.57;;;1.47;;
11238;SDS011;5677;48.488;13.436;2023-04-15T06:42:11;2.43;;;1.20;;
11238;SDS011;5677;48.488;13.436;2023-04-15T06:44:38;1.40;;;1.30;;
11238;SDS011;5677;48.488;13.436;2023-04-15T06:47:05;3.03;;;1.87;;
11238;SDS011;5677;48.488;13.436;2023-04-15T06:49:33;2.77;;;1.97;;
11238;SDS011;5677;48.488;13.436;2023-04-15T06:52:01;2.87;;;1.80;;
11238;SDS011;5677;48.488;13.436;2023-04-15T06:54:29;3.03;;;1.30;;
11238;SDS011;5677;48.488;13.436;2023-04-15T06:56:56;3.93;;;1.57;;
11238;SDS011;5677;48.488;13.436;2023-04-15T06:59:22;1.50;;;1.40;;
11238;SDS011;5677;48.488;13.436;2023-04-15T07:01:49;1.87;;;1.50;;
11238;SDS011;5677;48.488;13.436;2023-04-15T07:04:16;1.40;;;1.30;;
11238;SDS011;5677;48.488;13.436;2023-04-15T07:06:43;1.73;;;1.50;;
11238;SDS011;5677;48.488;13.436;2023-04-15T07:09:11;1.57;;;0.83;;
11238;SDS011;5677;48.488;13.436;2023-04-15T07:11:38;0.97;;;0.97;;
11238;SDS011;5677;48.488;13.436;2023-04-15T07:14:05;2.60;;;1.53;;
11238;SDS011;5677;48.488;13.436;2023-04-15T07:16:31;2.30;;;2.10;;
11238;SDS011;5677;48.488;13.436;2023-04-15T07:18:58;1.97;;;1.73;;
11238;SDS011;5677;48.488;13.436;2023-04-15T07:21:25;2.90;;;2.00;;
11238;SDS011;5677;48.488;13.436;2023-04-15T07:23:52;2.23;;;2.03;;
11238;SDS011;5677;48.488;13.436;2023-04-15T07:26:20;2.33;;;1.80;;
11238;SDS011;5677;48.488;13.436;2023-04-15T07:28:47;2.07;;;1.60;;
11238;SDS011;5677;48.488;13.436;2023-04-15T07:31:14;2.10;;;1.57;;
11238;SDS011;5677;48.488;13.436;2023-04-15T07:33:41;3.00;;;1.33;;
11238;SDS011;5677;48.488;13.436;2023-04-15T07:36:08;1.27;;;1.17;;
11238;SDS011;5677;48.488;13.436;2023-04-15T07:38:35;1.37;;;1.20;;
11238;SDS011;5677;48.488;13.436;2023-04-15T07:41:02;2.80;;;1.40;;
11238;SDS011;5677;48.488;13.436;2023-04-15T07:43:30;1.53;;;1.37;;
11238;SDS011;5677;48.488;13.436;2023-04-15T07:45:57;3.57;;;1.43;;
11238;SDS011;5677;48.488;13.436;2023-04-15T07:48:24;2.40;;;1.30;;
11238;SDS011;5677;48.488;13.436;2023-04-15T07:50:51;1.30;;;1.20;;
11238;SDS011;5677;48.488;13.436;2023-04-15T07:53:17;1.40;;;1.30;;
11238;SDS011;5677;48.488;13.436;2023-04-15T07:55:44;1.63;;;1.40;;
11238;SDS011;5677;48.488;13.436;2023-04-15T07:58:11;2.50;;;2.30;;
11238;SDS011;5677;48.488;13.436;2023-04-15T08:00:39;1.70;;;1.60;;
11238;SDS011;5677;48.488;13.436;2023-04-15T08:03:05;2.10;;;1.90;;
11238;SDS011;5677;48.488;13.436;2023-04-15T08:05:32;3.40;;;1.90;;
11238;SDS011;5677;48.488;13.436;2023-04-15T08:07:59;3.97;;;2.30;;
11238;SDS011;5677;48.488;13.436;2023-04-15T08:10:26;2.47;;;2.27;;
11238;SDS011;5677;48.488;13.436;2023-04-15T08:12:54;3.77;;;1.50;;
11238;SDS011;5677;48.488;13.436;2023-04-15T08:15:21;3.60;;;2.27;;
11238;SDS011;5677;48.488;13.436;2023-04-15T08:17:49;3.57;;;2.43;;
11238;SDS011;5677;48.488;13.436;2023-04-15T08:20:16;4.60;;;2.30;;
11238;SDS011;5677;48.488;13.436;2023-04-15T08:22:43;2.93;;;2.40;;
11238;SDS011;5677;48.488;13.436;2023-04-15T08:25:10;2.73;;;2.47;;
11238;SDS011;5677;48.488;13.436;2023-04-15T08:27:37;3.87;;;1.83;;
11238;SDS011;5677;48.488;13.436;2023-04-15T08:30:04;2.37;;;2.17;;
11238;SDS011;5677;48.488;13.436;2023-04-15T08:32:32;3.50;;;2.33;;
11238;SDS011;5677;48.488;13.436;2023-04-15T08:35:00;4.17;;;2.10;;
11238;SDS011;5677;48.488;13.436;2023-04-15T08:37:26;3.87;;;2.20;;
11238;SDS011;5677;48.488;13.436;2023-04-15T08:39:53;4.20;;;2.20;;
11238;SDS011;5677;48.488;13.436;2023-04-15T08:42:22;3.20;;;1.90;;
11238;SDS011;5677;48.488;13.436;2023-04-15T08:44:52;1.97;;;1.77;;
11238;SDS011;5677;48.488;13.436;2023-04-15T08:47:20;11.07;;;2.30;;
11238;SDS011;5677;48.488;13.436;2023-04-15T08:49:51;2.67;;;1.83;;
11238;SDS011;5677;48.488;13.436;2023-04-15T08:52:26;4.17;;;2.20;;
11238;SDS011;5677;48.488;13.436;2023-04-15T08:54:56;2.70;;;1.80;;
11238;SDS011;5677;48.488;13.436;2023-04-15T08:57:25;4.70;;;1.80;;
11238;SDS011;5677;48.488;13.436;2023-04-15T08:59:53;3.57;;;1.70;;
11238;SDS011;5677;48.488;13.436;2023-04-15T09:02:21;3.33;;;1.70;;
11238;SDS011;5677;48.488;13.436;2023-04-15T09:04:49;2.40;;;2.20;;
11238;SDS011;5677;48.488;13.436;2023-04-15T09:07:18;6.50;;;2.20;;
11238;SDS011;5677;48.488;13.436;2023-04-15T09:09:46;4.33;;;2.00;;
11238;SDS011;5677;48.488;13.436;2023-04-15T09:12:13;4.00;;;2.37;;
11238;SDS011;5677;48.488;13.436;2023-04-15T09:14:40;5.13;;;1.90;;
11238;SDS011;5677;48.488;13.436;2023-04-15T09:17:09;4.97;;;2.13;;
11238;SDS011;5677;48.488;13.436;2023-04-15T09:19:36;3.40;;;2.17;;
11238;SDS011;5677;48.488;13.436;2023-04-15T09:22:03;6.20;;;2.10;;
11238;SDS011;5677;48.488;13.436;2023-04-15T09:24:34;4.37;;;1.90;;
11238;SDS011;5677;48.488;13.436;2023-04-15T09:27:04;5.13;;;2.03;;
11238;SDS011;5677;48.488;13.436;2023-04-15T09:29:32;3.03;;;1.73;;
11238;SDS011;5677;48.488;13.436;2023-04-15T09:32:08;3.70;;;1.70;;
11238;SDS011;5677;48.488;13.436;2023-04-15T09:34:36;3.30;;;1.70;;
11238;SDS011;5677;48.488;13.436;2023-04-15T09:37:02;3.07;;;1.70;;
11238;SDS011;5677;48.488;13.436;2023-04-15T09:39:43;2.13;;;1.40;;
11238;SDS011;5677;48.488;13.436;2023-04-15T09:42:13;2.50;;;1.50;;
11238;SDS011;5677;48.488;13.436;2023-04-15T09:44:41;1.73;;;1.63;;
11238;SDS011;5677;48.488;13.436;2023-04-15T09:47:08;3.03;;;1.70;;
11238;SDS011;5677;48.488;13.436;2023-04-15T09:49:54;1.90;;;1.53;;
11238;SDS011;5677;48.488;13.436;2023-04-15T09:52:21;2.50;;;1.20;;
11238;SDS011;5677;48.488;13.436;2023-04-15T09:54:48;2.77;;;1.80;;
11238;SDS011;5677;48.488;13.436;2023-04-15T09:57:20;1.90;;;1.40;;
11238;SDS011;5677;48.488;13.436;2023-04-15T09:59:48;2.30;;;1.53;;
11238;SDS011;5677;48.488;13.436;2023-04-15T10:02:15;3.07;;;1.53;;
11238;SDS011;5677;48.488;13.436;2023-04-15T10:04:44;2.07;;;1.53;;
11238;SDS011;5677;48.488;13.436;2023-04-15T10:07:12;2.67;;;1.40;;
11238;SDS011;5677;48.488;13.436;2023-04-15T10:09:42;3.90;;;1.37;;
11238;SDS011;5677;48.488;13.436;2023-04-15T10:12:11;1.80;;;1.70;;
11238;SDS011;5677;48.488;13.436;2023-04-15T10:14:39;2.90;;;1.30;;
11238;SDS011;5677;48.488;13.436;2023-04-15T10:17:09;2.87;;;1.50;;
11238;SDS011;5677;48.488;13.436;2023-04-15T10:19:37;1.57;;;1.30;;
11238;SDS011;5677;48.488;13.436;2023-04-15T10:22:04;1.97;;;1.50;;
11238;SDS011;5677;48.488;13.436;2023-04-15T10:24:31;1.50;;;1.40;;
11238;SDS011;5677;48.488;13.436;2023-04-15T10:26:59;1.30;;;1.20;;
11238;SDS011;5677;48.488;13.436;2023-04-15T10:29:27;1.23;;;1.23;;
11238;SDS011;5677;48.488;13.436;2023-04-15T10:31:56;2.30;;;1.37;;
11238;SDS011;5677;48.488;13.436;2023-04-15T10:34:25;2.13;;;1.40;;
11238;SDS011;5677;48.488;13.436;2023-04-15T10:36:54;2.03;;;1.30;;
11238;SDS011;5677;48.488;13.436;2023-04-15T10:39:37;1.30;;;1.20;;
11238;SDS011;5677;48.488;13.436;2023-04-15T10:42:07;1.10;;;1.07;;
11238;SDS011;5677;48.488;13.436;2023-04-15T10:44:35;1.53;;;1.30;;
11238;SDS011;5677;48.488;13.436;2023-04-15T10:47:10;1.37;;;1.27;;
11238;SDS011;5677;48.488;13.436;2023-04-15T10:49:42;1.40;;;1.30;;
11238;SDS011;5677;48.488;13.436;2023-04-15T10:52:10;1.47;;;1.10;;
11238;SDS011;5677;48.488;13.436;2023-04-15T10:54:37;2.50;;;1.20;;
11238;SDS011;5677;48.488;13.436;2023-04-15T10:57:07;1.60;;;1.30;;
11238;SDS011;5677;48.488;13.436;2023-04-15T11:02:38;1.30;;;1.20;;
11238;SDS011;5677;48.488;13.436;2023-04-15T11:05:10;0.80;;;0.80;;
11238;SDS011;5677;48.488;13.436;2023-04-15T11:07:47;2.27;;;1.23;;
11238;SDS011;5677;48.488;13.436;2023-04-15T11:13:20;0.97;;;0.97;;
11238;SDS011;5677;48.488;13.436;2023-04-15T11:15:49;1.20;;;1.10;;
11238;SDS011;5677;48.488;13.436;2023-04-15T11:18:22;1.00;;;1.00;;
11238;SDS011;5677;48.488;13.436;2023-04-15T11:20:51;2.07;;;1.10;;
11238;SDS011;5677;48.488;13.436;2023-04-15T11:23:26;1.20;;;1.10;;
11238;SDS011;5677;48.488;13.436;2023-04-15T11:25:53;1.00;;;0.90;;
11238;SDS011;5677;48.488;13.436;2023-04-15T11:28:23;1.20;;;1.00;;
11238;SDS011;5677;48.488;13.436;2023-04-15T11:30:51;0.90;;;0.90;;
11238;SDS011;5677;48.488;13.436;2023-04-15T11:33:19;1.53;;;0.93;;
11238;SDS011;5677;48.488;13.436;2023-04-15T11:35:48;1.10;;;0.80;;
11238;SDS011;5677;48.488;13.436;2023-04-15T11:38:15;3.50;;;1.10;;
11238;SDS011;5677;48.488;13.436;2023-04-15T11:40:43;1.00;;;1.00;;
11238;SDS011;5677;48.488;13.436;2023-04-15T11:43:10;2.97;;;0.93;;
11238;SDS011;5677;48.488;13.436;2023-04-15T11:45:47;2.70;;;1.10;;
11238;SDS011;5677;48.488;13.436;2023-04-15T11:48:15;0.77;;;0.73;;
11238;SDS011;5677;48.488;13.436;2023-04-15T11:50:44;2.07;;;0.97;;
11238;SDS011;5677;48.488;13.436;2023-04-15T11:53:11;0.80;;;0.80;;
11238;SDS011;5677;48.488;13.436;2023-04-15T11:55:42;2.03;;;1.20;;
11238;SDS011;5677;48.488;13.436;2023-04-15T11:58:11;1.63;;;1.53;;
11238;SDS011;5677;48.488;13.436;2023-04-15T12:00:40;1.53;;;1.10;;
11238;SDS011;5677;48.488;13.436;2023-04-15T12:03:21;0.90;;;0.83;;
11238;SDS011;5677;48.488;13.436;2023-04-15T12:06:12;1.27;;;1.00;;
11238;SDS011;5677;48.488;13.436;2023-04-15T12:08:49;1.07;;;0.97;;
11238;SDS011;5677;48.488;13.436;2023-04-15T12:11:27;1.10;;;0.93;;
11238;SDS011;5677;48.488;13.436;2023-04-15T12:14:01;2.17;;;0.90;;
11238;SDS011;5677;48.488;13.436;2023-04-15T12:16:30;0.83;;;0.83;;
11238;SDS011;5677;48.488;13.436;2023-04-15T12:18:59;0.90;;;0.80;;
11238;SDS011;5677;48.488;13.436;2023-04-15T12:21:32;0.70;;;0.70;;
11238;SDS011;5677;48.488;13.436;2023-04-15T12:24:00;1.00;;;0.90;;
11238;SDS011;5677;48.488;13.436;2023-04-15T12:26:30;0.93;;;0.90;;
11238;SDS011;5677;48.488;13.436;2023-04-15T12:29:00;0.70;;;0.70;;
11238;SDS011;5677;48.488;13.436;2023-04-15T12:31:28;0.90;;;0.90;;
11238;SDS011;5677;48.488;13.436;2023-04-15T12:33:55;1.00;;;0.87;;
11238;SDS011;5677;48.488;13.436;2023-04-15T12:36:22;2.20;;;0.90;;
11238;SDS011;5677;48.488;13.436;2023-04-15T12:38:51;0.83;;;0.73;;
11238;SDS011;5677;48.488;13.436;2023-04-15T12:41:18;1.03;;;0.93;;
11238;SDS011;5677;48.488;13.436;2023-04-15T12:43:46;0.80;;;0.80;;
11238;SDS011;5677;48.488;13.436;2023-04-15T12:46:13;0.83;;;0.83;;
11238;SDS011;5677;48.488;13.436;2023-04-15T12:48:40;0.63;;;0.63;;
11238;SDS011;5677;48.488;13.436;2023-04-15T12:51:07;1.87;;;0.87;;
11238;SDS011;5677;48.488;13.436;2023-04-15T12:53:36;0.80;;;0.80;;
11238;SDS011;5677;48.488;13.436;2023-04-15T12:56:05;1.27;;;0.87;;
11238;SDS011;5677;48.488;13.436;2023-04-15T12:58:32;0.80;;;0.80;;
11238;SDS011;5677;48.488;13.436;2023-04-15T13:00:59;0.80;;;0.80;;
11238;SDS011;5677;48.488;13.436;2023-04-15T13:03:25;1.37;;;0.90;;
11238;SDS011;5677;48.488;13.436;2023-04-15T13:05:52;0.60;;;0.60;;
11238;SDS011;5677;48.488;13.436;2023-04-15T13:08:19;0.80;;;0.80;;
11238;SDS011;5677;48.488;13.436;2023-04-15T13:10:46;1.37;;;0.90;;
11238;SDS011;5677;48.488;13.436;2023-04-15T13:13:14;0.80;;;0.80;;
11238;SDS011;5677;48.488;13.436;2023-04-15T13:15:41;0.60;;;0.60;;
11238;SDS011;5677;48.488;13.436;2023-04-15T13:18:09;2.73;;;0.70;;
11238;SDS011;5677;48.488;13.436;2023-04-15T13:20:37;1.80;;;0.77;;
11238;SDS011;5677;48.488;13.436;2023-04-15T13:23:03;0.70;;;0.70;;
11238;SDS011;5677;48.488;13.436;2023-04-15T13:25:30;0.80;;;0.80;;
11238;SDS011;5677;48.488;13.436;2023-04-15T13:27:57;0.80;;;0.80;;
11238;SDS011;5677;48.488;13.436;2023-04-15T13:30:26;1.60;;;0.83;;
11238;SDS011;5677;48.488;13.436;2023-04-15T13:32:53;0.80;;;0.80;;
11238;SDS011;5677;48.488;13.436;2023-04-15T13:35:20;0.60;;;0.60;;
11238;SDS011;5677;48.488;13.436;2023-04-15T13:37:46;1.10;;;0.80;;
11238;SDS011;5677;48.488;13.436;2023-04-15T13:40:13;0.77;;;0.77;;
11238;SDS011;5677;48.488;13.436;2023-04-15T13:42:40;2.87;;;0.73;;
11238;SDS011;5677;48.488;13.436;2023-04-15T13:45:07;0.50;;;0.50;;
11238;SDS011;5677;48.488;13.436;2023-04-15T13:47:36;0.67;;;0.67;;
11238;SDS011;5677;48.488;13.436;2023-04-15T13:50:03;1.03;;;0.70;;
11238;SDS011;5677;48.488;13.436;2023-04-15T13:52:30;0.70;;;0.70;;
11238;SDS011;5677;48.488;13.436;2023-04-15T13:54:57;0.60;;;0.60;;
11238;SDS011;5677;48.488;13.436;2023-04-15T13:57:24;0.80;;;0.80;;
11238;SDS011;5677;48.488;13.436;2023-04-15T13:59:51;1.53;;;0.80;;
11238;SDS011;5677;48.488;13.436;2023-04-15T14:02:19;0.70;;;0.70;;
11238;SDS011;5677;48.488;13.436;2023-04-15T14:04:48;1.10;;;0.60;;
11238;SDS011;5677;48.488;13.436;2023-04-15T14:07:15;0.70;;;0.70;;
11238;SDS011;5677;48.488;13.436;2023-04-15T14:09:50;1.17;;;0.50;;
11238;SDS011;5677;48.488;13.436;2023-04-15T14:12:17;0.50;;;0.50;;
11238;SDS011;5677;48.488;13.436;2023-04-15T14:14:43;0.60;;;0.60;;
11238;SDS011;5677;48.488;13.436;2023-04-15T14:17:11;2.03;;;0.70;;
11238;SDS011;5677;48.488;13.436;2023-04-15T14:19:38;1.63;;;0.80;;
11238;SDS011;5677;48.488;13.436;2023-04-15T14:22:04;2.67;;;0.70;;
11238;SDS011;5677;48.488;13.436;2023-04-15T14:24:33;0.77;;;0.60;;
11238;SDS011;5677;48.488;13.436;2023-04-15T14:27:02;0.97;;;0.60;;
11238;SDS011;5677;48.488;13.436;2023-04-15T14:29:28;0.60;;;0.60;;
11238;SDS011;5677;48.488;13.436;2023-04-15T14:31:55;0.90;;;0.77;;
11238;SDS011;5677;48.488;13.436;2023-04-15T14:34:23;3.90;;;0.60;;
11238;SDS011;5677;48.488;13.436;2023-04-15T14:36:50;0.60;;;0.60;;
11238;SDS011;5677;48.488;13.436;2023-04-15T14:39:17;1.20;;;0.87;;
11238;SDS011;5677;48.488;13.436;2023-04-15T14:41:44;1.23;;;0.70;;
11238;SDS011;5677;48.488;13.436;2023-04-15T14:44:12;1.43;;;0.70;;
11238;SDS011;5677;48.488;13.436;2023-04-15T14:46:39;0.90;;;0.70;;
11238;SDS011;5677;48.488;13.436;2023-04-15T14:49:05;0.60;;;0.60;;
11238;SDS011;5677;48.488;13.436;2023-04-15T14:51:32;1.47;;;0.60;;
11238;SDS011;5677;48.488;13.436;2023-04-15T14:53:59;3.23;;;0.70;;
11238;SDS011;5677;48.488;13.436;2023-04-15T14:56:26;0.60;;;0.60;;
11238;SDS011;5677;48.488;13.436;2023-04-15T14:58:53;1.90;;;0.67;;